createdAt,value
2022-11-03T00:01:56.953Z,429.27
2022-11-03T00:04:24.116Z,303.40
2022-11-03T00:06:52.924Z,313.58
2022-11-03T00:09:20.780Z,241.90
2022-11-03T00:11:50.853Z,218.80
2022-11-03T00:14:17.855Z,179.88
2022-11-03T00:16:45.190Z,134.15
2022-11-03T00:19:13.202Z,105.72
2022-11-03T00:21:39.888Z,98.55
2022-11-03T00:24:06.810Z,83.57
2022-11-03T00:26:34.695Z,101.20
2022-11-03T00:29:03.116Z,94.07
2022-11-03T00:31:34.702Z,70.90
2022-11-03T00:34:02.018Z,76.20
2022-11-03T00:36:34.035Z,64.88
2022-11-03T00:39:00.964Z,68.57
2022-11-03T00:41:28.164Z,66.80
2022-11-03T00:43:55.397Z,46.92
2022-11-03T00:46:22.978Z,49.65
2022-11-03T00:48:50.211Z,39.22
2022-11-03T00:51:21.816Z,43.17
2022-11-03T00:53:59.306Z,43.05
2022-11-03T00:56:31.073Z,39.00
2022-11-03T00:58:58.875Z,40.70
2022-11-03T01:01:33.285Z,38.03
2022-11-03T01:04:18.546Z,32.03
2022-11-03T01:06:50.691Z,27.08
2022-11-03T01:09:18.379Z,35.72
2022-11-03T01:11:54.063Z,31.25
2022-11-03T01:14:22.234Z,29.30
2022-11-03T01:16:48.906Z,35.35
2022-11-03T01:19:15.560Z,30.70
2022-11-03T01:21:43.696Z,31.17
2022-11-03T01:24:10.306Z,22.60
2022-11-03T01:26:36.929Z,26.75
2022-11-03T01:29:03.664Z,25.25
2022-11-03T01:31:30.367Z,22.75
2022-11-03T01:33:57.462Z,24.75
2022-11-03T01:36:24.840Z,22.48
2022-11-03T01:38:51.674Z,26.20
2022-11-03T01:41:24.516Z,20.83
2022-11-03T01:44:12.052Z,27.20
2022-11-03T01:49:45.218Z,20.80
2022-11-03T01:52:17.550Z,22.95
